Airport View

Enter AWOS ICAO identifier for current METAR.

ex. KFNL

K5M9 022335Z AUTO 00000KT 10SM CLR 27/14 A3003 RMK AO2 T02700138

2 Jun 2020 23:46

Frequency: 118.15

Phone: 270-965-4877

Other Area AWOS: KM30 - K2I0 - KEHR - KHSB

TAF KPAH 021720Z 0218/0318 25007KT P6SM SKC FM030100 VRB04KT P6SM FEW200